TUA731 UTAA-UWKD
Flight info
| Callsign | TUA731 |
|---|---|
| Flight time | N/A |
| Altitude | 34000 |
| Route | N0460F340 MAMED A87 TIROM L992 BODSI M158 URL M161 MOF T793 TONSI |
| Aircraft | B738/M-VGDW/C |
Departure
| Time | 2026-04-13 09:30 |
|---|---|
| Airport | Ashgabat International Airport (UTAA) |
Arrival
| Time | N/A |
|---|---|
| Airport | Kazan International Airport (UWKD) |
| Time | Latitude | Longitude | Altitude | Speed | Heading |
|---|---|---|---|---|---|
| 2026-04-13 08:59 | 37.98237 | 58.36912 | 699 ft | 0 kts | 28° |
| 2026-04-13 09:18 | 37.98226 | 58.36904 | 701 ft | 2 kts | 28° |
| 2026-04-13 09:18 | 37.98213 | 58.36895 | 700 ft | 2 kts | 29° |
| 2026-04-13 09:18 | 37.98199 | 58.36886 | 700 ft | 2 kts | 28° |
| 2026-04-13 09:18 | 37.98186 | 58.36877 | 699 ft | 2 kts | 29° |
| 2026-04-13 09:19 | 37.98174 | 58.36868 | 699 ft | 2 kts | 29° |
| 2026-04-13 09:19 | 37.98165 | 58.36862 | 699 ft | 2 kts | 27° |
| 2026-04-13 09:19 | 37.98151 | 58.36858 | 699 ft | 2 kts | 357° |
| 2026-04-13 09:19 | 37.98136 | 58.36862 | 699 ft | 2 kts | 334° |
| 2026-04-13 09:20 | 37.98124 | 58.36873 | 699 ft | 2 kts | 310° |
| 2026-04-13 09:20 | 37.98119 | 58.36881 | 699 ft | 1 kts | 296° |
| 2026-04-13 09:20 | 37.98117 | 58.36886 | 699 ft | 0 kts | 299° |
| 2026-04-13 09:22 | 37.98129 | 58.36860 | 699 ft | 6 kts | 300° |
| 2026-04-13 09:22 | 37.98146 | 58.36824 | 699 ft | 9 kts | 299° |
| 2026-04-13 09:22 | 37.98159 | 58.36795 | 699 ft | 11 kts | 298° |
| 2026-04-13 09:23 | 37.98206 | 58.36689 | 699 ft | 14 kts | 300° |
| 2026-04-13 09:23 | 37.98251 | 58.36586 | 699 ft | 12 kts | 298° |
| 2026-04-13 09:23 | 37.98294 | 58.36491 | 699 ft | 11 kts | 299° |
| 2026-04-13 09:23 | 37.98328 | 58.36422 | 699 ft | 6 kts | 326° |
| 2026-04-13 09:24 | 37.98370 | 58.36423 | 699 ft | 5 kts | 23° |
| 2026-04-13 09:24 | 37.98418 | 58.36456 | 699 ft | 10 kts | 29° |
| 2026-04-13 09:24 | 37.98499 | 58.36512 | 699 ft | 14 kts | 28° |
| 2026-04-13 09:24 | 37.98586 | 58.36574 | 698 ft | 13 kts | 28° |
| 2026-04-13 09:25 | 37.98666 | 58.36631 | 698 ft | 11 kts | 29° |
| 2026-04-13 09:25 | 37.98714 | 58.36673 | 698 ft | 6 kts | 58° |
| 2026-04-13 09:25 | 37.98715 | 58.36727 | 698 ft | 6 kts | 110° |
| 2026-04-13 09:25 | 37.98689 | 58.36806 | 698 ft | 14 kts | 113° |
| 2026-04-13 09:26 | 37.98638 | 58.36959 | 698 ft | 21 kts | 112° |
| 2026-04-13 09:26 | 37.98576 | 58.37123 | 698 ft | 19 kts | 119° |
| 2026-04-13 09:26 | 37.98510 | 58.37270 | 698 ft | 18 kts | 119° |
| 2026-04-13 09:26 | 37.98447 | 58.37412 | 699 ft | 17 kts | 120° |
| 2026-04-13 09:27 | 37.98387 | 58.37545 | 699 ft | 17 kts | 119° |
| 2026-04-13 09:27 | 37.98329 | 58.37674 | 699 ft | 16 kts | 119° |
| 2026-04-13 09:27 | 37.98277 | 58.37793 | 699 ft | 14 kts | 118° |
| 2026-04-13 09:27 | 37.98240 | 58.37882 | 699 ft | 9 kts | 111° |
| 2026-04-13 09:28 | 37.98239 | 58.37958 | 699 ft | 8 kts | 70° |
| 2026-04-13 09:28 | 37.98274 | 58.38013 | 699 ft | 8 kts | 34° |
| 2026-04-13 09:28 | 37.98327 | 58.38052 | 699 ft | 8 kts | 28° |
| 2026-04-13 09:28 | 37.98357 | 58.38059 | 699 ft | 3 kts | 323° |
| 2026-04-13 09:29 | 37.98365 | 58.38045 | 699 ft | 0 kts | 299° |
| 2026-04-13 09:29 | 37.98376 | 58.38022 | 699 ft | 10 kts | 300° |
| 2026-04-13 09:30 | 37.98518 | 58.37704 | 699 ft | 75 kts | 298° |
| 2026-04-13 09:30 | 37.98879 | 58.36892 | 698 ft | 135 kts | 299° |
| 2026-04-13 09:30 | 37.99420 | 58.35668 | 825 ft | 172 kts | 300° |
| 2026-04-13 09:30 | 37.99975 | 58.34427 | 1662 ft | 162 kts | 300° |
| 2026-04-13 09:31 | 38.00547 | 58.33164 | 2119 ft | 173 kts | 301° |
| 2026-04-13 09:31 | 38.01158 | 58.31808 | 2523 ft | 187 kts | 301° |
| 2026-04-13 09:31 | 38.01821 | 58.30306 | 2900 ft | 204 kts | 301° |
| 2026-04-13 09:31 | 38.02546 | 58.28666 | 3275 ft | 224 kts | 301° |
| 2026-04-13 09:32 | 38.03346 | 58.26875 | 3710 ft | 241 kts | 301° |
| 2026-04-13 09:32 | 38.04255 | 58.25008 | 4194 ft | 256 kts | 304° |
| 2026-04-13 09:32 | 38.05314 | 58.23141 | 4747 ft | 267 kts | 308° |
| 2026-04-13 09:32 | 38.06481 | 58.21305 | 5416 ft | 273 kts | 310° |
| 2026-04-13 09:33 | 38.07736 | 58.19472 | 6113 ft | 279 kts | 312° |
| 2026-04-13 09:33 | 38.09159 | 58.17780 | 6799 ft | 283 kts | 320° |
| 2026-04-13 09:33 | 38.10721 | 58.16278 | 7510 ft | 286 kts | 322° |
| 2026-04-13 09:34 | 38.13965 | 58.13266 | 8936 ft | 295 kts | 320° |
| 2026-04-13 09:34 | 38.15610 | 58.11671 | 9634 ft | 298 kts | 319° |
| 2026-04-13 09:34 | 38.17241 | 58.10066 | 10284 ft | 303 kts | 319° |
| 2026-04-13 09:34 | 38.18933 | 58.08394 | 10702 ft | 317 kts | 319° |
| 2026-04-13 09:35 | 38.20728 | 58.06624 | 11108 ft | 332 kts | 319° |
| 2026-04-13 09:35 | 38.22589 | 58.04792 | 11480 ft | 348 kts | 319° |
| 2026-04-13 09:35 | 38.24560 | 58.02857 | 11898 ft | 361 kts | 319° |
| 2026-04-13 09:35 | 38.26543 | 58.00913 | 12461 ft | 370 kts | 319° |
| 2026-04-13 09:36 | 38.28591 | 57.98911 | 13198 ft | 373 kts | 319° |
| 2026-04-13 09:36 | 38.30638 | 57.96909 | 13952 ft | 376 kts | 319° |
| 2026-04-13 09:36 | 38.32722 | 57.94867 | 14673 ft | 380 kts | 319° |
| 2026-04-13 09:36 | 38.34811 | 57.92816 | 15373 ft | 384 kts | 319° |
| 2026-04-13 09:37 | 38.36927 | 57.90739 | 16092 ft | 387 kts | 319° |
| 2026-04-13 09:37 | 38.39085 | 57.88623 | 16775 ft | 391 kts | 319° |
| 2026-04-13 09:37 | 38.41246 | 57.86504 | 17430 ft | 396 kts | 319° |
| 2026-04-13 09:37 | 38.43422 | 57.84372 | 18063 ft | 400 kts | 319° |
| 2026-04-13 09:38 | 38.45633 | 57.82205 | 18747 ft | 403 kts | 319° |
| 2026-04-13 09:38 | 38.47856 | 57.80026 | 19401 ft | 406 kts | 319° |
| 2026-04-13 09:38 | 38.50100 | 57.77829 | 20059 ft | 408 kts | 319° |
| 2026-04-13 09:38 | 38.52367 | 57.75609 | 20702 ft | 411 kts | 319° |
| 2026-04-13 09:39 | 38.54630 | 57.73396 | 21346 ft | 413 kts | 319° |
| 2026-04-13 09:39 | 38.56911 | 57.71164 | 21951 ft | 415 kts | 319° |
| 2026-04-13 09:39 | 38.59194 | 57.68930 | 22581 ft | 416 kts | 319° |
| 2026-04-13 09:39 | 38.61504 | 57.66670 | 23151 ft | 419 kts | 319° |
| 2026-04-13 09:40 | 38.63763 | 57.64372 | 23678 ft | 422 kts | 317° |
| 2026-04-13 09:40 | 38.65995 | 57.61928 | 24168 ft | 425 kts | 315° |
| 2026-04-13 09:40 | 38.68205 | 57.59411 | 24675 ft | 428 kts | 315° |
| 2026-04-13 09:40 | 38.70427 | 57.56850 | 25161 ft | 431 kts | 314° |
| 2026-04-13 09:41 | 38.72637 | 57.54301 | 25657 ft | 433 kts | 315° |
| 2026-04-13 09:41 | 38.74895 | 57.51707 | 26116 ft | 436 kts | 315° |
| 2026-04-13 09:41 | 38.77169 | 57.49103 | 26571 ft | 439 kts | 315° |
| 2026-04-13 09:42 | 38.81735 | 57.43900 | 27448 ft | 445 kts | 315° |
| 2026-04-13 09:42 | 38.84066 | 57.41248 | 27879 ft | 447 kts | 315° |
| 2026-04-13 09:42 | 38.86375 | 57.38623 | 28259 ft | 451 kts | 315° |
| 2026-04-13 09:42 | 38.88727 | 57.35950 | 28661 ft | 454 kts | 315° |
| 2026-04-13 09:43 | 38.91105 | 57.33246 | 29023 ft | 457 kts | 314° |
| 2026-04-13 09:43 | 38.93483 | 57.30540 | 29466 ft | 459 kts | 314° |
| 2026-04-13 09:43 | 38.95882 | 57.27810 | 30022 ft | 457 kts | 314° |
| 2026-04-13 09:43 | 38.98265 | 57.25099 | 30639 ft | 454 kts | 314° |
| 2026-04-13 09:44 | 39.00640 | 57.22395 | 31299 ft | 449 kts | 314° |
| 2026-04-13 09:44 | 39.02941 | 57.19774 | 31944 ft | 444 kts | 314° |
| 2026-04-13 09:44 | 39.05230 | 57.17160 | 32539 ft | 440 kts | 314° |
| 2026-04-13 09:44 | 39.07516 | 57.14548 | 33057 ft | 437 kts | 314° |
| 2026-04-13 09:45 | 39.09764 | 57.11975 | 33438 ft | 437 kts | 313° |
| 2026-04-13 09:45 | 39.12041 | 57.09362 | 33802 ft | 437 kts | 313° |
| 2026-04-13 09:45 | 39.14292 | 57.06776 | 33958 ft | 440 kts | 313° |
| 2026-04-13 09:46 | 39.18841 | 57.01545 | 33950 ft | 437 kts | 313° |
| 2026-04-13 09:46 | 39.23370 | 56.96332 | 33949 ft | 437 kts | 313° |
| 2026-04-13 09:47 | 39.27913 | 56.91088 | 33949 ft | 440 kts | 313° |
| 2026-04-13 09:47 | 39.32460 | 56.85836 | 33954 ft | 440 kts | 313° |
| 2026-04-13 09:48 | 39.37003 | 56.80584 | 33948 ft | 440 kts | 313° |
| 2026-04-13 09:48 | 39.41559 | 56.75328 | 33952 ft | 441 kts | 314° |
| 2026-04-13 09:49 | 39.46162 | 56.70026 | 33952 ft | 442 kts | 314° |
| 2026-04-13 09:49 | 39.50724 | 56.64763 | 33953 ft | 443 kts | 314° |
| 2026-04-13 09:50 | 39.55320 | 56.59452 | 33948 ft | 442 kts | 314° |
| 2026-04-13 09:50 | 39.59900 | 56.54141 | 33956 ft | 443 kts | 314° |
| 2026-04-13 09:51 | 39.64476 | 56.48822 | 33952 ft | 444 kts | 314° |
| 2026-04-13 09:51 | 39.69047 | 56.43504 | 33954 ft | 443 kts | 314° |
| 2026-04-13 09:52 | 39.73650 | 56.38136 | 33958 ft | 445 kts | 314° |
| 2026-04-13 09:52 | 39.78242 | 56.32775 | 33959 ft | 446 kts | 313° |
| 2026-04-13 09:53 | 39.82805 | 56.27438 | 33953 ft | 445 kts | 313° |
| 2026-04-13 09:53 | 39.87435 | 56.22010 | 33964 ft | 445 kts | 313° |
| 2026-04-13 09:54 | 39.92008 | 56.16600 | 33960 ft | 446 kts | 313° |
| 2026-04-13 09:54 | 39.96595 | 56.11147 | 33970 ft | 447 kts | 313° |
| 2026-04-13 09:55 | 40.01144 | 56.05727 | 33973 ft | 447 kts | 313° |
| 2026-04-13 09:55 | 40.05734 | 56.00249 | 33967 ft | 447 kts | 313° |
| 2026-04-13 09:56 | 40.10305 | 55.94783 | 33970 ft | 447 kts | 313° |
| 2026-04-13 09:56 | 40.14890 | 55.89293 | 33973 ft | 447 kts | 313° |
| 2026-04-13 09:57 | 40.19471 | 55.83798 | 33963 ft | 449 kts | 313° |
| 2026-04-13 09:57 | 40.24061 | 55.78283 | 33959 ft | 449 kts | 313° |
| 2026-04-13 09:58 | 40.28636 | 55.72779 | 33959 ft | 450 kts | 313° |
| 2026-04-13 09:58 | 40.33251 | 55.67256 | 33951 ft | 449 kts | 313° |
| 2026-04-13 09:59 | 40.37851 | 55.61752 | 33960 ft | 450 kts | 313° |
| 2026-04-13 09:59 | 40.42479 | 55.56202 | 33950 ft | 450 kts | 313° |
| 2026-04-13 10:00 | 40.47084 | 55.50668 | 33957 ft | 451 kts | 313° |
| 2026-04-13 10:00 | 40.51677 | 55.45136 | 33955 ft | 452 kts | 313° |
| 2026-04-13 10:01 | 40.56306 | 55.39549 | 33955 ft | 452 kts | 313° |
| 2026-04-13 10:01 | 40.60906 | 55.33986 | 33953 ft | 451 kts | 313° |
| 2026-04-13 10:02 | 40.65543 | 55.28365 | 33958 ft | 452 kts | 313° |
| 2026-04-13 10:02 | 40.70142 | 55.22784 | 33957 ft | 451 kts | 313° |
| 2026-04-13 10:03 | 40.74755 | 55.17171 | 33957 ft | 452 kts | 312° |
| 2026-04-13 10:03 | 40.79359 | 55.11555 | 33958 ft | 453 kts | 312° |
| 2026-04-13 10:04 | 40.83969 | 55.05924 | 33956 ft | 452 kts | 313° |
| 2026-04-13 10:04 | 40.88588 | 55.00269 | 33956 ft | 454 kts | 313° |
| 2026-04-13 10:05 | 40.93203 | 54.94608 | 33953 ft | 454 kts | 313° |
| 2026-04-13 10:05 | 40.97813 | 54.88943 | 33951 ft | 455 kts | 313° |
| 2026-04-13 10:06 | 41.02432 | 54.83255 | 33948 ft | 454 kts | 313° |
| 2026-04-13 10:06 | 41.07072 | 54.77525 | 33944 ft | 456 kts | 312° |
| 2026-04-13 10:07 | 41.11686 | 54.71816 | 33946 ft | 456 kts | 312° |
| 2026-04-13 10:07 | 41.16309 | 54.66085 | 33944 ft | 456 kts | 313° |
| 2026-04-13 10:08 | 41.20929 | 54.60341 | 33944 ft | 458 kts | 312° |
| 2026-04-13 10:08 | 41.25581 | 54.54553 | 33939 ft | 458 kts | 313° |
| 2026-04-13 10:09 | 41.30195 | 54.48800 | 33941 ft | 457 kts | 313° |
| 2026-04-13 10:09 | 41.34832 | 54.43005 | 33940 ft | 458 kts | 312° |
| 2026-04-13 10:10 | 41.39469 | 54.37196 | 33941 ft | 458 kts | 313° |
| 2026-04-13 10:10 | 41.44088 | 54.31400 | 33937 ft | 460 kts | 312° |
| 2026-04-13 10:11 | 41.48727 | 54.25569 | 33935 ft | 459 kts | 312° |
| 2026-04-13 10:11 | 41.53392 | 54.19690 | 33928 ft | 460 kts | 312° |
| 2026-04-13 10:12 | 41.58020 | 54.13846 | 33927 ft | 460 kts | 312° |
| 2026-04-13 10:12 | 41.62681 | 54.07948 | 33920 ft | 462 kts | 312° |
| 2026-04-13 10:13 | 41.67296 | 54.02099 | 33917 ft | 460 kts | 312° |
| 2026-04-13 10:13 | 41.71949 | 53.96187 | 33911 ft | 460 kts | 311° |
| 2026-04-13 10:14 | 41.76580 | 53.90290 | 33912 ft | 461 kts | 312° |
| 2026-04-13 10:14 | 41.81197 | 53.84399 | 33912 ft | 463 kts | 312° |
| 2026-04-13 10:15 | 41.85863 | 53.78430 | 33912 ft | 464 kts | 312° |
| 2026-04-13 10:15 | 41.90526 | 53.72454 | 33920 ft | 464 kts | 311° |
| 2026-04-13 10:16 | 41.95170 | 53.66489 | 33928 ft | 464 kts | 311° |
| 2026-04-13 10:16 | 41.99800 | 53.60533 | 33931 ft | 463 kts | 311° |
| 2026-04-13 10:17 | 42.04449 | 53.54541 | 33934 ft | 464 kts | 311° |
| 2026-04-13 10:17 | 42.09084 | 53.48551 | 33933 ft | 464 kts | 311° |
| 2026-04-13 10:18 | 42.13763 | 53.42493 | 33940 ft | 466 kts | 311° |
| 2026-04-13 10:18 | 42.18385 | 53.36499 | 33941 ft | 466 kts | 312° |
| 2026-04-13 10:19 | 42.23260 | 53.30672 | 33942 ft | 470 kts | 320° |
| 2026-04-13 10:19 | 42.26107 | 53.28505 | 33947 ft | 478 kts | 334° |
| 2026-04-13 10:19 | 42.29288 | 53.27116 | 33945 ft | 482 kts | 342° |
| 2026-04-13 10:20 | 42.35829 | 53.25156 | 33948 ft | 483 kts | 347° |
| 2026-04-13 10:20 | 42.42434 | 53.23463 | 33948 ft | 485 kts | 347° |
| 2026-04-13 10:21 | 42.49023 | 53.21754 | 33947 ft | 484 kts | 347° |
| 2026-04-13 10:21 | 42.55607 | 53.19981 | 33946 ft | 483 kts | 346° |
| 2026-04-13 10:22 | 42.62185 | 53.18162 | 33944 ft | 484 kts | 346° |
| 2026-04-13 10:22 | 42.68809 | 53.16303 | 33953 ft | 486 kts | 346° |
| 2026-04-13 10:23 | 42.75396 | 53.14442 | 33948 ft | 484 kts | 346° |
| 2026-04-13 10:23 | 42.81958 | 53.12582 | 33948 ft | 484 kts | 346° |
| 2026-04-13 10:24 | 42.88570 | 53.10702 | 33948 ft | 486 kts | 346° |
| 2026-04-13 10:24 | 42.95158 | 53.08825 | 33948 ft | 486 kts | 346° |
| 2026-04-13 10:25 | 43.01757 | 53.06941 | 33948 ft | 486 kts | 346° |
| 2026-04-13 10:25 | 43.08388 | 53.05043 | 33946 ft | 486 kts | 346° |
| 2026-04-13 10:26 | 43.14986 | 53.03153 | 33946 ft | 486 kts | 346° |
| 2026-04-13 10:26 | 43.21559 | 53.01265 | 33942 ft | 486 kts | 346° |
| 2026-04-13 10:27 | 43.28154 | 52.99366 | 33942 ft | 485 kts | 346° |
| 2026-04-13 10:27 | 43.34758 | 52.97462 | 33932 ft | 486 kts | 346° |
| 2026-04-13 10:28 | 43.41361 | 52.95556 | 33926 ft | 485 kts | 347° |
| 2026-04-13 10:28 | 43.47957 | 52.93645 | 33918 ft | 486 kts | 347° |
| 2026-04-13 10:29 | 43.54577 | 52.91721 | 33911 ft | 487 kts | 347° |
| 2026-04-13 10:29 | 43.61180 | 52.89800 | 33908 ft | 486 kts | 346° |
| 2026-04-13 10:30 | 43.67809 | 52.87867 | 33903 ft | 485 kts | 346° |
| 2026-04-13 10:30 | 43.74369 | 52.85947 | 33903 ft | 485 kts | 347° |
| 2026-04-13 10:31 | 43.81004 | 52.84001 | 33901 ft | 486 kts | 347° |
| 2026-04-13 10:31 | 43.87575 | 52.82072 | 33902 ft | 485 kts | 347° |
| 2026-04-13 10:32 | 43.94161 | 52.80133 | 33904 ft | 484 kts | 347° |
| 2026-04-13 10:32 | 44.00743 | 52.78191 | 33910 ft | 484 kts | 347° |
| 2026-04-13 10:33 | 44.07306 | 52.76250 | 33909 ft | 484 kts | 347° |
| 2026-04-13 10:33 | 44.13895 | 52.74298 | 33909 ft | 485 kts | 347° |
| 2026-04-13 10:34 | 44.23729 | 52.71377 | 33907 ft | 484 kts | 347° |
| 2026-04-13 10:34 | 44.30307 | 52.69416 | 33905 ft | 485 kts | 347° |
| 2026-04-13 10:35 | 44.36894 | 52.67448 | 33904 ft | 485 kts | 347° |
| 2026-04-13 10:35 | 44.43481 | 52.65476 | 33903 ft | 484 kts | 347° |
| 2026-04-13 10:36 | 44.50047 | 52.63505 | 33904 ft | 484 kts | 347° |
| 2026-04-13 10:36 | 44.56607 | 52.61531 | 33903 ft | 483 kts | 347° |
| 2026-04-13 10:37 | 44.63180 | 52.59549 | 33903 ft | 483 kts | 347° |
| 2026-04-13 10:37 | 44.69716 | 52.57574 | 33901 ft | 483 kts | 347° |
| 2026-04-13 10:38 | 44.76313 | 52.55577 | 33898 ft | 483 kts | 347° |
| 2026-04-13 10:38 | 44.82856 | 52.53591 | 33898 ft | 482 kts | 347° |
| 2026-04-13 10:39 | 44.89389 | 52.51602 | 33897 ft | 483 kts | 347° |
| 2026-04-13 10:39 | 44.95932 | 52.49606 | 33899 ft | 483 kts | 347° |
| 2026-04-13 10:40 | 45.02486 | 52.47602 | 33903 ft | 482 kts | 347° |
| 2026-04-13 10:40 | 45.09025 | 52.45598 | 33905 ft | 483 kts | 347° |
| 2026-04-13 10:41 | 45.15566 | 52.43589 | 33904 ft | 483 kts | 347° |
| 2026-04-13 10:41 | 45.22136 | 52.41566 | 33904 ft | 482 kts | 347° |
| 2026-04-13 10:42 | 45.28688 | 52.39544 | 33899 ft | 483 kts | 347° |
| 2026-04-13 10:42 | 45.35209 | 52.37528 | 33902 ft | 483 kts | 348° |
| 2026-04-13 10:43 | 45.41768 | 52.35494 | 33899 ft | 483 kts | 347° |
| 2026-04-13 10:43 | 45.48323 | 52.33456 | 33899 ft | 483 kts | 347° |
| 2026-04-13 10:44 | 45.54874 | 52.31414 | 33898 ft | 484 kts | 347° |
| 2026-04-13 10:44 | 45.61401 | 52.29378 | 33899 ft | 483 kts | 347° |
| 2026-04-13 10:45 | 45.67947 | 52.27329 | 33894 ft | 482 kts | 347° |
| 2026-04-13 10:45 | 45.74500 | 52.25273 | 33891 ft | 482 kts | 347° |
| 2026-04-13 10:46 | 45.81042 | 52.23214 | 33889 ft | 483 kts | 347° |
| 2026-04-13 10:46 | 45.87599 | 52.21144 | 33892 ft | 482 kts | 347° |
| 2026-04-13 10:47 | 45.94137 | 52.19077 | 33889 ft | 482 kts | 347° |
| 2026-04-13 10:47 | 46.00686 | 52.17003 | 33889 ft | 484 kts | 347° |
| 2026-04-13 10:48 | 46.07249 | 52.14920 | 33888 ft | 483 kts | 347° |
| 2026-04-13 10:48 | 46.13808 | 52.12834 | 33898 ft | 484 kts | 347° |
| 2026-04-13 10:49 | 46.20338 | 52.10751 | 33904 ft | 483 kts | 347° |
| 2026-04-13 10:49 | 46.26882 | 52.08655 | 33897 ft | 483 kts | 347° |
| 2026-04-13 10:50 | 46.33459 | 52.06544 | 33900 ft | 483 kts | 347° |
| 2026-04-13 10:50 | 46.40004 | 52.04438 | 33895 ft | 484 kts | 347° |
| 2026-04-13 10:51 | 46.46543 | 52.02327 | 33903 ft | 483 kts | 347° |
| 2026-04-13 10:51 | 46.53075 | 52.00214 | 33893 ft | 483 kts | 347° |
| 2026-04-13 10:52 | 46.59587 | 51.98106 | 33900 ft | 483 kts | 347° |
| 2026-04-13 10:52 | 46.66168 | 51.95974 | 33907 ft | 483 kts | 347° |
| 2026-04-13 10:53 | 46.72721 | 51.93843 | 33901 ft | 485 kts | 347° |
| 2026-04-13 10:53 | 46.79259 | 51.91714 | 33896 ft | 483 kts | 347° |
| 2026-04-13 10:54 | 46.85821 | 51.89568 | 33902 ft | 485 kts | 347° |
| 2026-04-13 10:54 | 46.92385 | 51.87413 | 33898 ft | 484 kts | 347° |
| 2026-04-13 10:55 | 46.98924 | 51.85267 | 33900 ft | 483 kts | 347° |
| 2026-04-13 10:55 | 47.05511 | 51.83100 | 33899 ft | 485 kts | 347° |
| 2026-04-13 10:56 | 47.12061 | 51.80979 | 33893 ft | 483 kts | 349° |
| 2026-04-13 10:56 | 47.18721 | 51.79749 | 33886 ft | 484 kts | 357° |
| 2026-04-13 10:57 | 47.25395 | 51.79268 | 33896 ft | 481 kts | 359° |
| 2026-04-13 10:57 | 47.32097 | 51.78946 | 33887 ft | 483 kts | 359° |
| 2026-04-13 10:58 | 47.38817 | 51.78628 | 33896 ft | 483 kts | 359° |
| 2026-04-13 10:58 | 47.45497 | 51.78277 | 33895 ft | 482 kts | 359° |
| 2026-04-13 10:59 | 47.52143 | 51.77901 | 33893 ft | 482 kts | 359° |
| 2026-04-13 10:59 | 47.58816 | 51.77507 | 33892 ft | 481 kts | 359° |
| 2026-04-13 11:00 | 47.65517 | 51.77095 | 33897 ft | 481 kts | 359° |
| 2026-04-13 11:00 | 47.72133 | 51.76695 | 33898 ft | 481 kts | 359° |
| 2026-04-13 11:01 | 47.78802 | 51.76302 | 33898 ft | 480 kts | 359° |
| 2026-04-13 11:01 | 47.85469 | 51.75903 | 33888 ft | 479 kts | 359° |
| 2026-04-13 11:02 | 47.92114 | 51.75498 | 33888 ft | 481 kts | 359° |
| 2026-04-13 11:02 | 47.98748 | 51.75087 | 33887 ft | 479 kts | 359° |
| 2026-04-13 11:03 | 48.05409 | 51.74675 | 33886 ft | 481 kts | 359° |
| 2026-04-13 11:03 | 48.12095 | 51.74255 | 33888 ft | 483 kts | 359° |
| 2026-04-13 11:04 | 48.18753 | 51.73837 | 33892 ft | 481 kts | 359° |
| 2026-04-13 11:04 | 48.25411 | 51.73420 | 33895 ft | 481 kts | 359° |
| 2026-04-13 11:05 | 48.32140 | 51.73000 | 33893 ft | 483 kts | 359° |
| 2026-04-13 11:05 | 48.38824 | 51.72576 | 33896 ft | 483 kts | 359° |
| 2026-04-13 11:06 | 48.45537 | 51.72150 | 33892 ft | 484 kts | 359° |
| 2026-04-13 11:06 | 48.52225 | 51.71726 | 33891 ft | 486 kts | 359° |
| 2026-04-13 11:07 | 48.58993 | 51.71295 | 33900 ft | 485 kts | 359° |
| 2026-04-13 11:07 | 48.65724 | 51.70866 | 33893 ft | 487 kts | 359° |
| 2026-04-13 11:08 | 48.72453 | 51.70439 | 33894 ft | 488 kts | 359° |
| 2026-04-13 11:08 | 48.79280 | 51.70000 | 33896 ft | 490 kts | 359° |
| 2026-04-13 11:09 | 48.86031 | 51.69563 | 33900 ft | 489 kts | 359° |
| 2026-04-13 11:09 | 48.92835 | 51.69125 | 33899 ft | 491 kts | 359° |
| 2026-04-13 11:10 | 48.99632 | 51.68682 | 33899 ft | 489 kts | 359° |
| 2026-04-13 11:10 | 49.06455 | 51.68234 | 33901 ft | 491 kts | 359° |
| 2026-04-13 11:11 | 49.13239 | 51.67791 | 33909 ft | 489 kts | 359° |
| 2026-04-13 11:11 | 49.19981 | 51.67354 | 33913 ft | 488 kts | 358° |
| 2026-04-13 11:12 | 49.26760 | 51.66908 | 33913 ft | 489 kts | 358° |
| 2026-04-13 11:12 | 49.33553 | 51.66461 | 33915 ft | 489 kts | 359° |
| 2026-04-13 11:13 | 49.40342 | 51.66016 | 33921 ft | 489 kts | 358° |
| 2026-04-13 11:13 | 49.47109 | 51.65575 | 33917 ft | 489 kts | 359° |
| 2026-04-13 11:14 | 49.53856 | 51.65130 | 33923 ft | 489 kts | 358° |
| 2026-04-13 11:14 | 49.60655 | 51.64680 | 33929 ft | 489 kts | 358° |
| 2026-04-13 11:15 | 49.67417 | 51.64227 | 33933 ft | 488 kts | 358° |
| 2026-04-13 11:15 | 49.74165 | 51.63773 | 33930 ft | 488 kts | 358° |
| 2026-04-13 11:16 | 49.80941 | 51.63315 | 33935 ft | 487 kts | 358° |
| 2026-04-13 11:16 | 49.87664 | 51.62863 | 33945 ft | 486 kts | 358° |
| 2026-04-13 11:17 | 49.94404 | 51.62410 | 33948 ft | 486 kts | 358° |
| 2026-04-13 11:17 | 50.01111 | 51.61956 | 33946 ft | 485 kts | 358° |
| 2026-04-13 11:18 | 50.07864 | 51.61499 | 33955 ft | 486 kts | 358° |
| 2026-04-13 11:18 | 50.14629 | 51.61038 | 33951 ft | 486 kts | 358° |
| 2026-04-13 11:19 | 50.21343 | 51.60581 | 33957 ft | 486 kts | 357° |
| 2026-04-13 11:19 | 50.28081 | 51.60120 | 33962 ft | 487 kts | 357° |
| 2026-04-13 11:20 | 50.34785 | 51.59657 | 33965 ft | 485 kts | 357° |
| 2026-04-13 11:20 | 50.41524 | 51.59192 | 33968 ft | 486 kts | 357° |
| 2026-04-13 11:21 | 50.48244 | 51.58740 | 33964 ft | 486 kts | 357° |
| 2026-04-13 11:21 | 50.54967 | 51.58305 | 33964 ft | 486 kts | 357° |
| 2026-04-13 11:22 | 50.61700 | 51.57875 | 33982 ft | 485 kts | 357° |
| 2026-04-13 11:22 | 50.68433 | 51.57439 | 33978 ft | 486 kts | 357° |
| 2026-04-13 11:23 | 50.75157 | 51.57010 | 33982 ft | 485 kts | 357° |
| 2026-04-13 11:23 | 50.81852 | 51.56573 | 33996 ft | 484 kts | 357° |
| 2026-04-13 11:24 | 50.88609 | 51.56123 | 34004 ft | 486 kts | 357° |
| 2026-04-13 11:24 | 50.95330 | 51.55678 | 34014 ft | 486 kts | 357° |
| 2026-04-13 11:25 | 51.02087 | 51.55224 | 34018 ft | 486 kts | 356° |
| 2026-04-13 11:25 | 51.08813 | 51.54767 | 34020 ft | 485 kts | 356° |
| 2026-04-13 11:26 | 51.15409 | 51.53075 | 34025 ft | 479 kts | 338° |
| 2026-04-13 11:26 | 51.18408 | 51.50864 | 34023 ft | 474 kts | 326° |
| 2026-04-13 11:26 | 51.21198 | 51.48155 | 34025 ft | 473 kts | 323° |
| 2026-04-13 11:27 | 51.26614 | 51.42353 | 34025 ft | 469 kts | 321° |
| 2026-04-13 11:27 | 51.31959 | 51.36475 | 34026 ft | 472 kts | 321° |
| 2026-04-13 11:28 | 51.37367 | 51.30593 | 34029 ft | 470 kts | 321° |
| 2026-04-13 11:28 | 51.42788 | 51.24742 | 34032 ft | 469 kts | 321° |
| 2026-04-13 11:29 | 51.48186 | 51.18954 | 34035 ft | 470 kts | 322° |
| 2026-04-13 11:29 | 51.53622 | 51.13206 | 34041 ft | 469 kts | 321° |
| 2026-04-13 11:30 | 51.59066 | 51.07460 | 34040 ft | 468 kts | 322° |
| 2026-04-13 11:30 | 51.64521 | 51.01783 | 34038 ft | 472 kts | 324° |
| 2026-04-13 11:31 | 51.70451 | 50.97172 | 34040 ft | 477 kts | 336° |
| 2026-04-13 11:31 | 51.76790 | 50.94139 | 34048 ft | 479 kts | 342° |
| 2026-04-13 11:32 | 51.83252 | 50.91531 | 34048 ft | 481 kts | 343° |
| 2026-04-13 11:32 | 51.89707 | 50.88919 | 34052 ft | 481 kts | 342° |
| 2026-04-13 11:33 | 51.96168 | 50.86227 | 34046 ft | 481 kts | 342° |
| 2026-04-13 11:34 | 52.05856 | 50.82134 | 34052 ft | 480 kts | 342° |
| 2026-04-13 11:34 | 52.12267 | 50.79402 | 34054 ft | 478 kts | 341° |
| 2026-04-13 11:35 | 52.18735 | 50.76626 | 34063 ft | 479 kts | 341° |
| 2026-04-13 11:35 | 52.25132 | 50.73865 | 34062 ft | 478 kts | 341° |
| 2026-04-13 11:36 | 52.31526 | 50.71093 | 34066 ft | 478 kts | 341° |
| 2026-04-13 11:36 | 52.37957 | 50.68302 | 34064 ft | 477 kts | 341° |
| 2026-04-13 11:37 | 52.44347 | 50.65516 | 34069 ft | 477 kts | 341° |
| 2026-04-13 11:37 | 52.50717 | 50.62738 | 34073 ft | 475 kts | 341° |
| 2026-04-13 11:38 | 52.57084 | 50.59948 | 34077 ft | 476 kts | 341° |
| 2026-04-13 11:38 | 52.63418 | 50.57159 | 34076 ft | 474 kts | 341° |
| 2026-04-13 11:39 | 52.69816 | 50.54336 | 34079 ft | 475 kts | 341° |
| 2026-04-13 11:39 | 52.76152 | 50.51535 | 34081 ft | 473 kts | 341° |
| 2026-04-13 11:40 | 52.82506 | 50.48711 | 34085 ft | 474 kts | 341° |
| 2026-04-13 11:40 | 52.88821 | 50.45890 | 34086 ft | 473 kts | 341° |
| 2026-04-13 11:41 | 52.95171 | 50.43053 | 34086 ft | 470 kts | 341° |
| 2026-04-13 11:41 | 53.01430 | 50.40251 | 34086 ft | 473 kts | 341° |
| 2026-04-13 11:42 | 53.07793 | 50.37396 | 34090 ft | 470 kts | 340° |
| 2026-04-13 11:42 | 53.14048 | 50.34574 | 34095 ft | 471 kts | 340° |
| 2026-04-13 11:43 | 53.20318 | 50.31743 | 34092 ft | 469 kts | 340° |
| 2026-04-13 11:43 | 53.26612 | 50.28889 | 34095 ft | 469 kts | 340° |
| 2026-04-13 11:44 | 53.32905 | 50.26025 | 34097 ft | 468 kts | 340° |
| 2026-04-13 11:44 | 53.39147 | 50.23175 | 34098 ft | 466 kts | 340° |
| 2026-04-13 11:45 | 53.45398 | 50.20309 | 34098 ft | 466 kts | 339° |
| 2026-04-13 11:45 | 53.51627 | 50.17454 | 34100 ft | 466 kts | 340° |
| 2026-04-13 11:46 | 53.57870 | 50.14792 | 34099 ft | 466 kts | 341° |
| 2026-04-13 11:46 | 53.64183 | 50.12263 | 34101 ft | 467 kts | 341° |
| 2026-04-13 11:47 | 53.70487 | 50.09740 | 34100 ft | 465 kts | 341° |
| 2026-04-13 11:47 | 53.76741 | 50.07208 | 34101 ft | 465 kts | 341° |
| 2026-04-13 11:48 | 53.82979 | 50.04658 | 34101 ft | 463 kts | 341° |
| 2026-04-13 11:48 | 53.89272 | 50.02066 | 34103 ft | 465 kts | 341° |
| 2026-04-13 11:49 | 53.95499 | 49.99493 | 34107 ft | 465 kts | 341° |
| 2026-04-13 11:49 | 54.01800 | 49.96875 | 34107 ft | 465 kts | 341° |
| 2026-04-13 11:50 | 54.08014 | 49.94290 | 34111 ft | 462 kts | 341° |
| 2026-04-13 11:50 | 54.14287 | 49.91663 | 34117 ft | 464 kts | 340° |
| 2026-04-13 11:51 | 54.20538 | 49.89037 | 34115 ft | 463 kts | 340° |
| 2026-04-13 11:51 | 54.26738 | 49.86421 | 34117 ft | 464 kts | 341° |
| 2026-04-13 11:52 | 54.32994 | 49.83774 | 34121 ft | 464 kts | 341° |
| 2026-04-13 11:52 | 54.39292 | 49.81480 | 34124 ft | 468 kts | 345° |
| 2026-04-13 11:53 | 54.45717 | 49.79893 | 34112 ft | 468 kts | 348° |
| 2026-04-13 11:53 | 54.52169 | 49.78457 | 34121 ft | 469 kts | 348° |
| 2026-04-13 11:54 | 54.58596 | 49.76998 | 34116 ft | 468 kts | 347° |
| 2026-04-13 11:54 | 54.65089 | 49.75473 | 34126 ft | 468 kts | 347° |
| 2026-04-13 11:55 | 54.71465 | 49.73943 | 34123 ft | 467 kts | 346° |
| 2026-04-13 11:55 | 54.77755 | 49.71630 | 34125 ft | 461 kts | 338° |
| 2026-04-13 11:56 | 54.83832 | 49.68192 | 34125 ft | 457 kts | 335° |
| 2026-04-13 11:56 | 54.89794 | 49.64475 | 34133 ft | 457 kts | 334° |
| 2026-04-13 11:57 | 54.95777 | 49.60714 | 34130 ft | 459 kts | 334° |
| 2026-04-13 11:57 | 55.01756 | 49.56983 | 34133 ft | 458 kts | 334° |
| 2026-04-13 11:58 | 55.07753 | 49.53251 | 34135 ft | 460 kts | 335° |
| 2026-04-13 11:58 | 55.13729 | 49.49543 | 34140 ft | 461 kts | 335° |
| 2026-04-13 11:59 | 55.19755 | 49.45799 | 34119 ft | 459 kts | 334° |
| 2026-04-13 11:59 | 55.25751 | 49.42099 | 34016 ft | 460 kts | 335° |
| 2026-04-13 12:00 | 55.31791 | 49.38503 | 33863 ft | 460 kts | 336° |
| 2026-04-13 12:00 | 55.37857 | 49.35039 | 33906 ft | 462 kts | 336° |
| 2026-04-13 12:00 | 55.40927 | 49.33347 | 34023 ft | 462 kts | 336° |
| 2026-04-13 12:01 | 55.43984 | 49.31708 | 33987 ft | 462 kts | 336° |
| 2026-04-13 12:01 | 55.50132 | 49.28609 | 34026 ft | 460 kts | 338° |
| 2026-04-13 12:02 | 55.56337 | 49.25781 | 34087 ft | 465 kts | 340° |
| 2026-04-13 12:02 | 55.62656 | 49.23209 | 34012 ft | 467 kts | 341° |
| 2026-04-13 12:03 | 55.68969 | 49.21015 | 34038 ft | 468 kts | 343° |
| 2026-04-13 12:03 | 55.75386 | 49.19249 | 34080 ft | 467 kts | 346° |
| 2026-04-13 12:04 | 55.81903 | 49.18013 | 34082 ft | 473 kts | 349° |
| 2026-04-13 12:04 | 55.88440 | 49.17327 | 34061 ft | 476 kts | 352° |
| 2026-04-13 12:05 | 55.95000 | 49.17189 | 33995 ft | 477 kts | 355° |
| 2026-04-13 12:05 | 56.01625 | 49.17661 | 33966 ft | 480 kts | 358° |
| 2026-04-13 12:06 | 56.08218 | 49.18703 | 33957 ft | 480 kts | 1° |
| 2026-04-13 12:06 | 56.14845 | 49.20324 | 33937 ft | 485 kts | 4° |
| 2026-04-13 12:07 | 56.21421 | 49.22585 | 33975 ft | 483 kts | 7° |
| 2026-04-13 12:07 | 56.27933 | 49.25533 | 33925 ft | 486 kts | 11° |
| 2026-04-13 12:08 | 56.34357 | 49.29225 | 34001 ft | 487 kts | 15° |
| 2026-04-13 12:08 | 56.40684 | 49.33572 | 33940 ft | 490 kts | 18° |
| 2026-04-13 12:09 | 56.46950 | 49.38398 | 33915 ft | 492 kts | 20° |
| 2026-04-13 12:09 | 56.53109 | 49.43644 | 33903 ft | 490 kts | 22° |
| 2026-04-13 12:10 | 56.59164 | 49.49353 | 33938 ft | 490 kts | 25° |
| 2026-04-13 12:10 | 56.65065 | 49.55494 | 33908 ft | 496 kts | 27° |
| 2026-04-13 12:11 | 56.70851 | 49.62114 | 33930 ft | 494 kts | 30° |
| 2026-04-13 12:11 | 56.76508 | 49.69208 | 33987 ft | 495 kts | 33° |
| 2026-04-13 12:12 | 56.82011 | 49.76719 | 33945 ft | 499 kts | 35° |
| 2026-04-13 12:12 | 56.87362 | 49.84605 | 33920 ft | 497 kts | 37° |
| 2026-04-13 12:13 | 56.92606 | 49.92852 | 33967 ft | 498 kts | 39° |
| 2026-04-13 12:13 | 56.97663 | 50.01398 | 34009 ft | 499 kts | 42° |
| 2026-04-13 12:14 | 57.02528 | 50.10455 | 33968 ft | 501 kts | 45° |
| 2026-04-13 12:14 | 57.07078 | 50.19993 | 33972 ft | 498 kts | 49° |
| 2026-04-13 12:15 | 57.11351 | 50.30045 | 34020 ft | 499 kts | 52° |
| 2026-04-13 12:15 | 57.15289 | 50.40411 | 34069 ft | 498 kts | 55° |
| 2026-04-13 12:16 | 57.18993 | 50.51215 | 34020 ft | 500 kts | 58° |
| 2026-04-13 12:16 | 57.22405 | 50.62300 | 34035 ft | 500 kts | 61° |
| 2026-04-13 12:17 | 57.25506 | 50.73631 | 34116 ft | 496 kts | 65° |
| 2026-04-13 12:17 | 57.28273 | 50.85226 | 34128 ft | 496 kts | 68° |
| 2026-04-13 12:18 | 57.30751 | 50.97131 | 34106 ft | 497 kts | 71° |
| 2026-04-13 12:18 | 57.32917 | 51.09152 | 34135 ft | 496 kts | 73° |
| 2026-04-13 12:19 | 57.34778 | 51.21350 | 34140 ft | 496 kts | 76° |
| 2026-04-13 12:19 | 57.36325 | 51.33725 | 34164 ft | 495 kts | 79° |
| 2026-04-13 12:20 | 57.37545 | 51.46109 | 34179 ft | 492 kts | 82° |
| 2026-04-13 12:20 | 57.38444 | 51.58577 | 34242 ft | 491 kts | 85° |
| 2026-04-13 12:21 | 57.39052 | 51.71149 | 34198 ft | 492 kts | 88° |
| 2026-04-13 12:21 | 57.39426 | 51.83656 | 34198 ft | 488 kts | 90° |
| 2026-04-13 12:22 | 57.39587 | 51.96191 | 34219 ft | 486 kts | 91° |
| 2026-04-13 12:22 | 57.39545 | 52.08651 | 34237 ft | 487 kts | 94° |
| 2026-04-13 12:23 | 57.39240 | 52.21178 | 34220 ft | 486 kts | 96° |
| 2026-04-13 12:23 | 57.38683 | 52.33596 | 34321 ft | 485 kts | 98° |
| 2026-04-13 12:24 | 57.37895 | 52.45926 | 34361 ft | 486 kts | 99° |
| 2026-04-13 12:24 | 57.36845 | 52.58161 | 34385 ft | 483 kts | 102° |
| 2026-04-13 12:25 | 57.35519 | 52.70266 | 34350 ft | 483 kts | 105° |
| 2026-04-13 12:25 | 57.33919 | 52.82256 | 34360 ft | 483 kts | 108° |
| 2026-04-13 12:26 | 57.32032 | 52.94161 | 34351 ft | 480 kts | 110° |
| 2026-04-13 12:26 | 57.29921 | 53.05745 | 34390 ft | 478 kts | 112° |
| 2026-04-13 12:27 | 57.27552 | 53.17176 | 34428 ft | 479 kts | 115° |
| 2026-04-13 12:27 | 57.23557 | 53.34091 | 34431 ft | 477 kts | 118° |
| 2026-04-13 12:28 | 57.20672 | 53.45010 | 34380 ft | 480 kts | 120° |
| 2026-04-13 12:28 | 57.17565 | 53.55806 | 34398 ft | 478 kts | 122° |
| 2026-04-13 12:29 | 57.14272 | 53.66378 | 34407 ft | 477 kts | 126° |
| 2026-04-13 12:29 | 57.10802 | 53.76729 | 34352 ft | 475 kts | 127° |
| 2026-04-13 12:30 | 57.07152 | 53.86766 | 34283 ft | 476 kts | 129° |
| 2026-04-13 12:30 | 57.03319 | 53.96473 | 34329 ft | 469 kts | 131° |
| 2026-04-13 12:31 | 56.99277 | 54.05943 | 34290 ft | 473 kts | 134° |
| 2026-04-13 12:31 | 56.95071 | 54.15079 | 34253 ft | 472 kts | 136° |
| 2026-04-13 12:32 | 56.90715 | 54.23856 | 34221 ft | 469 kts | 139° |
| 2026-04-13 12:32 | 56.86193 | 54.32297 | 34246 ft | 465 kts | 141° |
| 2026-04-13 12:33 | 56.81495 | 54.40354 | 34289 ft | 463 kts | 143° |
| 2026-04-13 12:33 | 56.76624 | 54.47980 | 34303 ft | 463 kts | 146° |
| 2026-04-13 12:34 | 56.71590 | 54.55167 | 34269 ft | 462 kts | 149° |
| 2026-04-13 12:34 | 56.66397 | 54.61880 | 34317 ft | 459 kts | 152° |
| 2026-04-13 12:35 | 56.61046 | 54.68128 | 34374 ft | 456 kts | 155° |
| 2026-04-13 12:35 | 56.55594 | 54.73868 | 34333 ft | 453 kts | 158° |
| 2026-04-13 12:36 | 56.50061 | 54.79097 | 34318 ft | 449 kts | 161° |
| 2026-04-13 12:36 | 56.44422 | 54.83843 | 34343 ft | 448 kts | 163° |
| 2026-04-13 12:37 | 56.38747 | 54.88124 | 34351 ft | 444 kts | 166° |
| 2026-04-13 12:37 | 56.32983 | 54.91943 | 34294 ft | 441 kts | 168° |
| 2026-04-13 12:38 | 56.27153 | 54.95227 | 34252 ft | 438 kts | 171° |
| 2026-04-13 12:38 | 56.21294 | 54.97917 | 34200 ft | 438 kts | 174° |
| 2026-04-13 12:39 | 56.15363 | 54.99994 | 34220 ft | 434 kts | 178° |
| 2026-04-13 12:39 | 56.09407 | 55.01422 | 34166 ft | 432 kts | 181° |
| 2026-04-13 12:40 | 56.03497 | 55.02199 | 34165 ft | 425 kts | 185° |
| 2026-04-13 12:40 | 55.97658 | 55.02395 | 34208 ft | 422 kts | 188° |
| 2026-04-13 12:41 | 55.91782 | 55.02025 | 34153 ft | 423 kts | 191° |
| 2026-04-13 12:41 | 55.86004 | 55.01085 | 34141 ft | 418 kts | 194° |
| 2026-04-13 12:42 | 55.80325 | 54.99566 | 34210 ft | 416 kts | 197° |
| 2026-04-13 12:42 | 55.74686 | 54.97456 | 34264 ft | 413 kts | 200° |
| 2026-04-13 12:43 | 55.69161 | 54.94800 | 34237 ft | 412 kts | 203° |
| 2026-04-13 12:43 | 55.63774 | 54.91679 | 34261 ft | 410 kts | 206° |
| 2026-04-13 12:44 | 55.58527 | 54.88064 | 34273 ft | 406 kts | 209° |
| 2026-04-13 12:44 | 55.53432 | 54.83957 | 34303 ft | 402 kts | 212° |
| 2026-04-13 12:45 | 55.48486 | 54.79387 | 34338 ft | 402 kts | 214° |
| 2026-04-13 12:45 | 55.43708 | 54.74400 | 34307 ft | 402 kts | 217° |
| 2026-04-13 12:46 | 55.39010 | 54.69149 | 34297 ft | 402 kts | 218° |
| 2026-04-13 12:46 | 55.34439 | 54.63740 | 34310 ft | 398 kts | 220° |
| 2026-04-13 12:47 | 55.29964 | 54.58047 | 34347 ft | 398 kts | 222° |
| 2026-04-13 12:47 | 55.25600 | 54.52066 | 34345 ft | 396 kts | 224° |
| 2026-04-13 12:48 | 55.21404 | 54.45929 | 34284 ft | 395 kts | 225° |
| 2026-04-13 12:48 | 55.17343 | 54.39590 | 34233 ft | 394 kts | 227° |
| 2026-04-13 12:49 | 55.13395 | 54.32976 | 34223 ft | 394 kts | 228° |
| 2026-04-13 12:49 | 55.09619 | 54.26115 | 34161 ft | 395 kts | 230° |
| 2026-04-13 12:50 | 55.06021 | 54.18949 | 34160 ft | 394 kts | 233° |
| 2026-04-13 12:50 | 55.02633 | 54.11449 | 34212 ft | 392 kts | 236° |
| 2026-04-13 12:51 | 54.99506 | 54.03719 | 34226 ft | 390 kts | 238° |
| 2026-04-13 12:51 | 54.96628 | 53.95748 | 34183 ft | 393 kts | 241° |
| 2026-04-13 12:52 | 54.93981 | 53.87509 | 34194 ft | 391 kts | 243° |
| 2026-04-13 12:52 | 54.91594 | 53.79105 | 34209 ft | 388 kts | 246° |
| 2026-04-13 12:53 | 54.89459 | 53.70470 | 34146 ft | 391 kts | 249° |
| 2026-04-13 12:53 | 54.87620 | 53.61723 | 34158 ft | 388 kts | 251° |
| 2026-04-13 12:54 | 54.86057 | 53.52811 | 34222 ft | 388 kts | 255° |
| 2026-04-13 12:54 | 54.84771 | 53.43716 | 34174 ft | 391 kts | 257° |
| 2026-04-13 12:55 | 54.83777 | 53.34513 | 34166 ft | 390 kts | 259° |
| 2026-04-13 12:55 | 54.83029 | 53.25181 | 34223 ft | 389 kts | 262° |
| 2026-04-13 12:56 | 54.82508 | 53.15858 | 34190 ft | 393 kts | 263° |
| 2026-04-13 12:56 | 54.82194 | 53.06446 | 34224 ft | 391 kts | 265° |
| 2026-04-13 12:57 | 54.82106 | 52.97028 | 34296 ft | 391 kts | 268° |
| 2026-04-13 12:57 | 54.82241 | 52.87636 | 34284 ft | 393 kts | 270° |
| 2026-04-13 12:58 | 54.82627 | 52.78210 | 34276 ft | 396 kts | 272° |
| 2026-04-13 12:58 | 54.83409 | 52.68842 | 34282 ft | 395 kts | 278° |
| 2026-04-13 12:59 | 54.84795 | 52.59559 | 34214 ft | 403 kts | 283° |
| 2026-04-13 12:59 | 54.86684 | 52.50399 | 34212 ft | 406 kts | 288° |
| 2026-04-13 13:00 | 54.89035 | 52.41541 | 34156 ft | 410 kts | 292° |
| 2026-04-13 13:00 | 54.91826 | 52.32978 | 34184 ft | 411 kts | 296° |
| 2026-04-13 13:01 | 54.95019 | 52.24728 | 34275 ft | 414 kts | 300° |
| 2026-04-13 13:01 | 54.98552 | 52.16856 | 34252 ft | 419 kts | 304° |
| 2026-04-13 13:02 | 55.02421 | 52.09312 | 34279 ft | 421 kts | 307° |
| 2026-04-13 13:02 | 55.06587 | 52.02148 | 34356 ft | 422 kts | 310° |
| 2026-04-13 13:03 | 55.11018 | 51.95387 | 34377 ft | 427 kts | 314° |
| 2026-04-13 13:03 | 55.15681 | 51.89053 | 34384 ft | 427 kts | 317° |
| 2026-04-13 13:04 | 55.20577 | 51.83173 | 34359 ft | 430 kts | 321° |
| 2026-04-13 13:04 | 55.25661 | 51.77818 | 34349 ft | 432 kts | 324° |
| 2026-04-13 13:05 | 55.31005 | 51.72863 | 34353 ft | 435 kts | 327° |
| 2026-04-13 13:05 | 55.36479 | 51.68411 | 34335 ft | 439 kts | 330° |
| 2026-04-13 13:06 | 55.42117 | 51.64390 | 34287 ft | 442 kts | 333° |
| 2026-04-13 13:06 | 55.47918 | 51.60817 | 34254 ft | 442 kts | 335° |
| 2026-04-13 13:07 | 55.49857 | 51.59744 | 34313 ft | 444 kts | 336° |